Time;durP1;ratioP1;P1;durP2;ratioP2;P2;SDS_P1;SDS_P2;PMS_P1;PMS_P2;Temp;Humidity;BMP_temperature;BMP_pressure;BME280_temperature;BME280_humidity;BME280_pressure;Samples;Min_cycle;Max_cycle;Signal;HPM_P1;HPM_P2
2023/01/19 00:01:46;;;;;;;25.97;16.83;;;1.90;99.90;;;;;;5094218;28;20202;-73
2023/01/19 00:04:12;;;;;;;25.63;17.03;;;1.90;99.90;;;;;;5093918;28;20639;-73
2023/01/19 00:06:37;;;;;;;24.07;17.10;;;1.90;99.90;;;;;;5094218;28;20183;-72
2023/01/19 00:09:03;;;;;;;26.43;18.10;;;1.80;99.90;;;;;;5094012;28;20176;-73
2023/01/19 00:11:29;;;;;;;23.00;17.00;;;1.80;99.90;;;;;;5094063;28;20172;-73
2023/01/19 00:13:54;;;;;;;28.13;18.23;;;1.90;99.90;;;;;;5092643;28;20230;-73
2023/01/19 00:16:22;;;;;;;27.17;16.63;;;1.90;99.90;;;;;;5093899;28;20172;-72
2023/01/19 00:18:49;;;;;;;27.23;17.50;;;1.90;99.90;;;;;;5093731;28;20237;-73
2023/01/19 00:21:15;;;;;;;25.80;16.17;;;1.90;99.90;;;;;;5093850;28;20623;-72
2023/01/19 00:23:42;;;;;;;25.13;17.20;;;2.00;99.90;;;;;;5093849;28;20237;-72
2023/01/19 00:26:09;;;;;;;25.50;16.70;;;2.00;99.90;;;;;;5093934;28;20250;-73
2023/01/19 00:28:35;;;;;;;23.83;16.30;;;2.10;99.90;;;;;;5092248;28;20180;-72
2023/01/19 00:31:03;;;;;;;23.17;15.60;;;2.10;99.90;;;;;;5093651;28;20179;-71
2023/01/19 00:33:29;;;;;;;22.83;16.53;;;2.10;99.90;;;;;;5093389;28;20171;-71
2023/01/19 00:35:55;;;;;;;26.30;16.87;;;2.20;99.90;;;;;;5093670;28;20180;-72
2023/01/19 00:38:20;;;;;;;23.30;15.93;;;2.20;99.90;;;;;;5092269;28;20228;-73
2023/01/19 00:40:47;;;;;;;23.77;15.23;;;2.20;99.90;;;;;;5093576;28;20183;-72
2023/01/19 00:43:12;;;;;;;23.63;16.57;;;2.30;99.90;;;;;;5093343;28;20231;-72
2023/01/19 00:45:40;;;;;;;24.07;16.33;;;2.20;99.90;;;;;;5093273;28;20688;-72
2023/01/19 00:48:07;;;;;;;25.47;16.90;;;2.30;99.90;;;;;;5092982;28;20234;-73
2023/01/19 00:50:33;;;;;;;27.30;15.93;;;2.20;99.90;;;;;;5093525;28;20206;-72
2023/01/19 00:53:00;;;;;;;28.00;14.50;;;2.20;99.90;;;;;;5093466;28;20176;-72
2023/01/19 00:55:29;;;;;;;21.57;15.93;;;2.20;99.90;;;;;;5093189;28;20225;-72
2023/01/19 00:57:55;;;;;;;21.53;15.07;;;2.20;99.90;;;;;;5093192;28;20183;-72
2023/01/19 01:00:21;;;;;;;24.87;16.93;;;2.20;99.90;;;;;;5093170;28;20174;-72
2023/01/19 01:02:48;;;;;;;22.37;16.13;;;2.10;99.90;;;;;;5093293;28;20200;-72
2023/01/19 01:05:14;;;;;;;27.07;16.67;;;2.10;99.90;;;;;;5092067;28;20171;-72
2023/01/19 01:07:40;;;;;;;26.37;16.87;;;2.10;99.90;;;;;;5093189;28;20634;-72
2023/01/19 01:10:12;;;;;;;26.10;17.83;;;2.10;99.90;;;;;;5093160;28;20171;-73
2023/01/19 01:12:38;;;;;;;27.00;16.93;;;1.90;99.90;;;;;;5091949;28;20186;-72
2023/01/19 01:15:06;;;;;;;27.97;17.00;;;2.00;99.90;;;;;;5094074;28;20168;-72
2023/01/19 01:17:31;;;;;;;25.57;17.43;;;1.90;99.90;;;;;;5097210;28;20171;-72
2023/01/19 01:19:57;;;;;;;27.13;17.80;;;1.90;99.90;;;;;;5097327;28;20179;-74
2023/01/19 01:22:23;;;;;;;27.03;17.60;;;1.90;99.90;;;;;;5097306;28;20202;-72
2023/01/19 01:24:48;;;;;;;28.50;17.27;;;1.80;99.90;;;;;;5097137;28;20168;-73
2023/01/19 01:27:14;;;;;;;29.93;17.67;;;1.80;99.90;;;;;;5097348;28;20191;-72
2023/01/19 01:29:41;;;;;;;28.33;17.10;;;1.80;99.90;;;;;;5096900;28;20190;-73
2023/01/19 01:32:07;;;;;;;27.97;17.03;;;1.80;99.90;;;;;;5095812;28;20603;-72
2023/01/19 01:34:33;;;;;;;24.70;16.77;;;1.80;99.90;;;;;;5097259;28;20337;-73
2023/01/19 01:36:59;;;;;;;26.67;17.60;;;1.70;99.90;;;;;;5097188;28;20350;-73
2023/01/19 01:39:24;;;;;;;26.30;17.67;;;1.70;99.90;;;;;;5096742;28;20203;-73
2023/01/19 01:41:50;;;;;;;28.60;17.30;;;1.70;99.90;;;;;;5097168;28;20203;-73
2023/01/19 01:44:48;;;;;;;27.47;17.77;;;1.60;99.90;;;;;;5096618;28;20221;-73
2023/01/19 01:47:19;;;;;;;26.53;17.40;;;1.60;99.90;;;;;;5096828;28;20266;-72
2023/01/19 01:49:46;;;;;;;28.57;17.03;;;1.60;99.90;;;;;;5095627;28;20187;-73
2023/01/19 01:52:14;;;;;;;26.77;17.43;;;1.60;99.90;;;;;;5096779;28;20201;-73
2023/01/19 01:54:41;;;;;;;28.03;17.47;;;1.60;99.90;;;;;;5096652;28;20164;-73
2023/01/19 01:57:11;;;;;;;29.73;17.83;;;1.50;99.90;;;;;;5096581;28;20194;-73
2023/01/19 01:59:43;;;;;;;27.83;17.73;;;1.60;99.90;;;;;;5096381;28;20496;-73
2023/01/19 02:05:11;;;;;;;26.77;17.20;;;1.60;99.90;;;;;;5096433;28;20179;-73
2023/01/19 02:13:19;;;;;;;29.17;16.43;;;1.60;99.90;;;;;;5096477;28;20654;-73
2023/01/19 02:15:45;;;;;;;28.87;16.50;;;1.60;99.90;;;;;;5096393;28;20213;-73
2023/01/19 02:18:11;;;;;;;25.13;13.87;;;1.50;99.90;;;;;;5096189;28;20168;-72
2023/01/19 02:20:39;;;;;;;27.03;15.67;;;1.50;99.90;;;;;;5096276;28;20183;-72
2023/01/19 02:23:17;;;;;;;26.30;16.07;;;1.50;99.90;;;;;;5094682;28;20545;-72
2023/01/19 02:25:43;;;;;;;28.77;16.63;;;1.50;99.90;;;;;;5096211;28;20200;-72
2023/01/19 02:28:09;;;;;;;21.67;15.30;;;1.50;99.90;;;;;;5093321;28;20233;-72
2023/01/19 02:30:38;;;;;;;28.17;16.27;;;1.50;99.90;;;;;;5095976;28;20164;-73
2023/01/19 02:33:04;;;;;;;24.03;15.57;;;1.40;99.90;;;;;;5095951;28;20172;-73
2023/01/19 02:35:30;;;;;;;24.33;15.87;;;1.50;99.90;;;;;;5095944;28;20523;-73
2023/01/19 02:37:57;;;;;;;28.50;17.03;;;1.50;99.90;;;;;;5095957;28;20172;-73
2023/01/19 02:40:24;;;;;;;27.07;16.13;;;1.50;99.90;;;;;;5095916;28;20247;-73
2023/01/19 02:42:52;;;;;;;26.53;15.77;;;1.60;99.90;;;;;;5095350;28;20208;-73
2023/01/19 02:45:20;;;;;;;26.50;16.53;;;1.60;99.90;;;;;;5095358;28;20216;-72
2023/01/19 02:47:49;;;;;;;25.43;14.43;;;1.60;99.90;;;;;;5095740;28;20184;-72
2023/01/19 02:50:44;;;;;;;25.50;15.33;;;1.60;99.90;;;;;;5095827;28;20255;-72
2023/01/19 02:53:36;;;;;;;26.23;16.20;;;1.70;99.90;;;;;;5095682;28;20164;-74
2023/01/19 02:56:14;;;;;;;28.23;15.90;;;1.60;99.90;;;;;;5094268;28;20161;-73
2023/01/19 02:59:04;;;;;;;23.53;15.23;;;1.70;99.90;;;;;;5095424;28;20195;-72
2023/01/19 03:01:58;;;;;;;27.73;15.60;;;1.70;99.90;;;;;;5095537;28;20313;-72
2023/01/19 03:04:52;;;;;;;26.13;15.13;;;1.60;99.90;;;;;;5095387;28;20215;-72
2023/01/19 03:07:39;;;;;;;22.33;14.57;;;1.60;99.90;;;;;;5095261;28;20195;-74
2023/01/19 03:10:29;;;;;;;23.83;14.73;;;1.60;99.90;;;;;;5095421;28;20164;-73
2023/01/19 03:13:13;;;;;;;27.50;14.57;;;1.60;99.90;;;;;;5083947;28;20630;-73
2023/01/19 03:15:53;;;;;;;23.43;14.67;;;1.60;99.90;;;;;;5095159;28;20178;-73
2023/01/19 03:18:23;;;;;;;23.70;15.23;;;1.60;99.90;;;;;;5095109;28;20175;-73
2023/01/19 03:20:52;;;;;;;27.97;14.97;;;1.60;99.90;;;;;;5095151;28;20172;-72
2023/01/19 03:23:21;;;;;;;24.20;14.73;;;1.70;99.90;;;;;;5093586;28;20211;-72
2023/01/19 03:25:48;;;;;;;25.10;15.50;;;1.70;99.90;;;;;;5093398;28;20187;-72
2023/01/19 03:28:17;;;;;;;23.77;14.37;;;1.80;99.90;;;;;;5094837;28;20234;-72
2023/01/19 03:30:46;;;;;;;21.70;15.37;;;1.80;99.90;;;;;;5094977;28;20171;-72
2023/01/19 03:33:19;;;;;;;22.57;14.67;;;1.90;99.90;;;;;;5093435;28;20283;-72
2023/01/19 03:35:49;;;;;;;25.70;15.13;;;2.00;99.90;;;;;;5093580;28;20186;-72
2023/01/19 03:38:18;;;;;;;25.73;14.77;;;2.00;99.90;;;;;;5094250;28;20225;-72
2023/01/19 03:40:46;;;;;;;22.30;14.43;;;1.90;99.90;;;;;;5094210;28;20209;-72
2023/01/19 03:43:15;;;;;;;22.13;13.73;;;1.90;99.90;;;;;;5094504;28;20296;-72
2023/01/19 03:45:41;;;;;;;22.83;15.23;;;2.00;99.90;;;;;;5094092;28;20713;-73
2023/01/19 03:48:07;;;;;;;24.13;13.70;;;2.10;99.90;;;;;;5094469;28;20201;-73
2023/01/19 03:50:33;;;;;;;23.23;13.53;;;2.20;99.90;;;;;;5094261;28;20175;-72
2023/01/19 03:53:11;;;;;;;23.70;14.93;;;2.20;99.90;;;;;;5094400;28;20171;-72
2023/01/19 03:55:39;;;;;;;25.17;13.73;;;2.20;99.90;;;;;;5092685;28;20696;-71
2023/01/19 03:58:05;;;;;;;24.67;14.60;;;2.30;99.90;;;;;;5092830;28;20217;-71
2023/01/19 04:00:31;;;;;;;24.03;14.20;;;2.20;99.90;;;;;;5092952;28;20183;-71
2023/01/19 04:02:57;;;;;;;29.10;15.00;;;2.30;99.90;;;;;;5092848;28;20212;-72
2023/01/19 04:05:23;;;;;;;27.23;14.30;;;2.20;99.90;;;;;;5094070;28;20167;-71
2023/01/19 04:07:50;;;;;;;24.17;14.73;;;2.20;99.90;;;;;;5094104;28;20221;-71
2023/01/19 04:10:18;;;;;;;25.27;15.47;;;2.10;99.90;;;;;;5093734;28;20666;-72
2023/01/19 04:12:44;;;;;;;26.10;15.43;;;2.20;99.90;;;;;;5094057;28;20632;-73
2023/01/19 04:15:09;;;;;;;27.37;14.87;;;2.20;99.90;;;;;;5093803;28;20166;-74
2023/01/19 04:17:35;;;;;;;25.37;15.17;;;2.20;99.90;;;;;;5093635;28;20167;-73
2023/01/19 04:20:01;;;;;;;23.20;15.23;;;2.10;99.90;;;;;;5093547;28;20682;-73
2023/01/19 04:22:26;;;;;;;27.93;16.20;;;2.20;99.90;;;;;;5093650;28;20268;-73
2023/01/19 04:24:52;;;;;;;27.37;15.90;;;2.10;99.90;;;;;;5093516;28;20160;-72
2023/01/19 04:27:18;;;;;;;29.83;16.93;;;2.00;99.90;;;;;;5093632;28;20627;-72
2023/01/19 04:29:43;;;;;;;30.17;16.67;;;2.00;99.90;;;;;;5093689;28;20178;-73
2023/01/19 04:32:09;;;;;;;24.50;16.13;;;1.90;99.90;;;;;;5093430;28;20164;-73
2023/01/19 04:34:35;;;;;;;29.83;15.97;;;1.90;99.90;;;;;;5092082;28;20226;-73
2023/01/19 04:37:00;;;;;;;27.93;16.13;;;1.90;99.90;;;;;;5093611;28;20258;-72
2023/01/19 04:39:26;;;;;;;30.67;17.77;;;1.90;99.90;;;;;;5092949;28;20206;-71
2023/01/19 04:41:52;;;;;;;30.60;16.63;;;2.00;99.90;;;;;;5091902;28;20176;-73
2023/01/19 04:44:18;;;;;;;30.37;17.17;;;2.00;99.90;;;;;;5093592;28;20270;-73
2023/01/19 04:46:44;;;;;;;29.73;16.40;;;2.00;99.90;;;;;;5092690;28;20254;-72
2023/01/19 04:49:09;;;;;;;31.87;17.03;;;2.10;99.90;;;;;;5093118;28;20199;-73
2023/01/19 04:51:35;;;;;;;28.23;16.57;;;2.20;99.90;;;;;;5092970;28;20192;-75
2023/01/19 04:54:02;;;;;;;33.47;17.17;;;2.10;99.90;;;;;;5092663;28;20247;-74
2023/01/19 04:56:27;;;;;;;31.40;17.00;;;2.10;99.90;;;;;;5093054;28;20199;-73
2023/01/19 04:58:53;;;;;;;31.07;17.90;;;2.00;99.90;;;;;;5092757;28;20170;-73
2023/01/19 05:01:19;;;;;;;30.77;18.47;;;2.00;99.90;;;;;;5091870;28;20228;-73
2023/01/19 05:03:45;;;;;;;34.27;18.60;;;2.00;99.90;;;;;;5091425;28;20569;-73
2023/01/19 05:06:11;;;;;;;31.13;17.90;;;2.00;99.90;;;;;;5092854;28;20175;-74
2023/01/19 05:08:36;;;;;;;33.93;19.07;;;1.90;99.90;;;;;;5092765;28;20192;-73
2023/01/19 05:11:02;;;;;;;32.17;19.67;;;1.80;99.90;;;;;;5092323;28;20178;-74
2023/01/19 05:13:28;;;;;;;35.30;19.97;;;1.90;99.90;;;;;;5093134;28;20182;-73
2023/01/19 05:15:53;;;;;;;34.93;19.43;;;1.90;99.90;;;;;;5092591;28;20527;-72
2023/01/19 05:18:19;;;;;;;36.93;20.00;;;1.90;99.90;;;;;;5092938;28;20175;-73
2023/01/19 05:20:45;;;;;;;38.97;19.83;;;2.00;99.90;;;;;;5092892;28;20207;-73
2023/01/19 05:23:10;;;;;;;35.47;19.93;;;1.90;99.90;;;;;;5092000;28;20207;-72
2023/01/19 05:25:36;;;;;;;35.10;20.13;;;1.90;99.90;;;;;;5093053;28;20168;-73
2023/01/19 05:28:02;;;;;;;37.23;20.20;;;1.90;99.90;;;;;;5092523;28;20175;-73
2023/01/19 05:30:28;;;;;;;36.13;21.00;;;1.90;99.90;;;;;;5092599;28;20172;-74
2023/01/19 05:32:53;;;;;;;36.07;20.00;;;1.90;99.90;;;;;;5091110;28;20187;-73
2023/01/19 05:35:19;;;;;;;37.07;20.60;;;1.90;99.90;;;;;;5092522;28;20255;-73
2023/01/19 05:37:44;;;;;;;30.33;18.73;;;1.90;99.90;;;;;;5091053;28;20184;-73
2023/01/19 05:40:10;;;;;;;37.70;20.47;;;1.80;99.90;;;;;;5092423;28;20160;-73
2023/01/19 05:42:36;;;;;;;38.73;20.77;;;1.80;99.90;;;;;;5090712;28;20207;-75
2023/01/19 05:45:02;;;;;;;41.37;21.33;;;1.70;99.90;;;;;;5092270;28;20191;-74
2023/01/19 05:47:29;;;;;;;40.07;20.97;;;1.70;99.90;;;;;;5091270;28;20184;-73
2023/01/19 05:49:54;;;;;;;37.17;20.83;;;1.70;99.90;;;;;;5092339;28;20244;-73
2023/01/19 05:52:20;;;;;;;39.70;21.47;;;1.80;99.90;;;;;;5091387;28;20172;-74
2023/01/19 05:54:47;;;;;;;36.87;19.47;;;1.70;99.90;;;;;;5092447;28;20724;-73
2023/01/19 05:57:13;;;;;;;37.13;20.77;;;1.70;99.90;;;;;;5092390;28;20203;-72
2023/01/19 05:59:39;;;;;;;37.47;20.40;;;1.70;99.90;;;;;;5091960;28;20239;-71
2023/01/19 06:02:05;;;;;;;34.97;20.60;;;1.70;99.90;;;;;;5094590;28;20203;-74
2023/01/19 06:04:31;;;;;;;36.50;19.37;;;1.70;99.90;;;;;;5096033;28;20267;-73
2023/01/19 06:06:56;;;;;;;40.43;20.97;;;1.60;99.90;;;;;;5095653;28;20641;-72
2023/01/19 06:09:22;;;;;;;36.17;19.40;;;1.70;99.90;;;;;;5095527;28;20164;-73
2023/01/19 06:11:48;;;;;;;37.67;19.90;;;1.70;99.90;;;;;;5095793;28;20643;-72
2023/01/19 06:14:13;;;;;;;38.77;20.97;;;1.70;99.90;;;;;;5095853;28;20235;-73
2023/01/19 06:16:39;;;;;;;38.97;19.77;;;1.70;99.90;;;;;;5095451;28;20172;-72
2023/01/19 06:19:05;;;;;;;40.10;21.23;;;1.70;99.90;;;;;;5095687;28;20179;-72
2023/01/19 06:21:31;;;;;;;34.40;18.83;;;1.70;99.90;;;;;;5094798;28;20167;-73
2023/01/19 06:23:57;;;;;;;32.80;19.30;;;1.80;99.90;;;;;;5095679;28;20196;-72
2023/01/19 06:26:23;;;;;;;35.53;19.77;;;1.80;99.90;;;;;;5093768;28;20176;-73
2023/01/19 06:28:50;;;;;;;36.93;19.77;;;1.80;99.90;;;;;;5095240;28;20229;-72
2023/01/19 06:31:16;;;;;;;35.20;19.67;;;1.70;99.90;;;;;;5095114;28;20255;-73
2023/01/19 06:33:42;;;;;;;36.97;18.77;;;1.70;99.90;;;;;;5095267;28;20222;-73
2023/01/19 06:36:08;;;;;;;38.87;19.13;;;1.80;99.90;;;;;;5095064;28;20221;-73
2023/01/19 06:38:33;;;;;;;34.90;18.73;;;1.80;99.90;;;;;;5095250;28;20180;-74
2023/01/19 06:41:01;;;;;;;38.97;20.43;;;1.80;99.90;;;;;;5094343;28;20176;-74
2023/01/19 06:43:27;;;;;;;39.07;20.47;;;1.80;99.90;;;;;;5094855;28;20215;-72
2023/01/19 06:45:53;;;;;;;35.53;20.07;;;1.90;99.90;;;;;;5094428;28;20679;-73
2023/01/19 06:48:19;;;;;;;36.17;19.33;;;1.90;99.90;;;;;;5094169;28;20175;-72
2023/01/19 06:50:45;;;;;;;35.07;19.63;;;2.00;99.90;;;;;;5093366;28;20198;-72
2023/01/19 06:53:11;;;;;;;36.43;18.90;;;2.20;99.90;;;;;;5094712;28;20647;-72
2023/01/19 06:55:39;;;;;;;34.50;18.97;;;2.20;99.90;;;;;;5093840;28;20207;-73
2023/01/19 06:58:05;;;;;;;39.50;19.90;;;2.20;99.90;;;;;;5094062;28;20183;-72
2023/01/19 07:00:31;;;;;;;35.43;20.03;;;2.20;99.90;;;;;;5094683;28;20513;-73
2023/01/19 07:02:57;;;;;;;34.47;19.03;;;2.20;99.90;;;;;;5094417;28;20206;-72
2023/01/19 07:05:23;;;;;;;38.10;18.73;;;2.30;99.90;;;;;;5094106;28;20695;-72
2023/01/19 07:07:53;;;;;;;39.33;19.50;;;2.20;99.90;;;;;;5088660;28;20497;-74
2023/01/19 07:10:18;;;;;;;34.80;19.23;;;2.20;99.90;;;;;;5072366;28;20311;-73
2023/01/19 07:12:46;;;;;;;32.77;18.87;;;2.30;99.90;;;;;;5072615;28;20259;-73
2023/01/19 07:15:13;;;;;;;36.50;19.27;;;2.30;99.90;;;;;;5073803;28;20629;-76
2023/01/19 07:17:40;;;;;;;34.13;18.47;;;2.20;99.90;;;;;;5072041;28;20745;-73
2023/01/19 07:20:07;;;;;;;33.43;18.70;;;2.20;99.90;;;;;;5080799;28;20309;-72
2023/01/19 07:22:32;;;;;;;35.00;19.37;;;2.20;99.90;;;;;;5089108;28;20200;-74
2023/01/19 07:24:58;;;;;;;33.47;18.90;;;2.20;99.90;;;;;;5094217;28;20168;-74
2023/01/19 07:27:26;;;;;;;36.27;19.10;;;2.10;99.90;;;;;;5093215;28;20728;-75
2023/01/19 07:29:52;;;;;;;34.17;19.50;;;2.10;99.90;;;;;;5092686;28;20167;-75
2023/01/19 07:32:17;;;;;;;37.73;19.70;;;2.10;99.90;;;;;;5093131;28;20172;-75
2023/01/19 07:34:44;;;;;;;36.17;19.70;;;2.10;99.90;;;;;;5092998;28;20287;-76
2023/01/19 07:37:09;;;;;;;32.53;18.63;;;2.00;99.90;;;;;;5092777;28;20258;-73
2023/01/19 07:39:35;;;;;;;39.70;19.90;;;2.20;99.90;;;;;;5092282;28;20291;-74
2023/01/19 07:42:01;;;;;;;37.60;19.43;;;2.00;99.90;;;;;;5092942;28;20218;-72
2023/01/19 07:44:26;;;;;;;39.50;19.70;;;2.10;99.90;;;;;;5092447;28;20176;-75
2023/01/19 07:46:52;;;;;;;33.90;18.67;;;2.20;99.90;;;;;;5092227;28;20571;-73
2023/01/19 07:49:19;;;;;;;34.60;19.37;;;2.20;99.90;;;;;;5108524;28;20599;-74
2023/01/19 07:51:45;;;;;;;37.77;19.07;;;2.20;99.90;;;;;;5078822;28;20235;-74
2023/01/19 07:54:11;;;;;;;41.27;20.83;;;2.20;99.90;;;;;;5078905;28;20176;-74
2023/01/19 07:56:39;;;;;;;39.40;20.30;;;2.10;99.90;;;;;;5100574;28;20225;-75
2023/01/19 07:59:08;;;;;;;37.50;19.97;;;2.00;99.90;;;;;;5099961;27;20163;-75
2023/01/19 08:01:34;;;;;;;40.93;21.60;;;2.00;99.90;;;;;;5088526;28;20168;-76
2023/01/19 08:03:59;;;;;;;39.70;21.00;;;2.10;99.90;;;;;;5080161;28;20685;-74
2023/01/19 08:06:36;;;;;;;37.90;18.70;;;2.10;99.90;;;;;;5105094;28;20534;-74
2023/01/19 08:09:04;;;;;;;36.03;20.07;;;2.10;99.90;;;;;;5087214;28;20204;-76
2023/01/19 08:11:33;;;;;;;38.03;19.77;;;2.20;99.90;;;;;;5091002;28;20169;-72
2023/01/19 08:13:59;;;;;;;36.67;19.57;;;2.30;99.90;;;;;;5108397;28;20179;-73
2023/01/19 08:16:25;;;;;;;41.93;20.60;;;2.40;99.90;;;;;;5093180;28;20177;-72
2023/01/19 08:18:54;;;;;;;42.90;21.27;;;2.40;99.90;;;;;;5089659;28;20336;-74
2023/01/19 08:21:20;;;;;;;38.40;20.83;;;2.60;99.90;;;;;;5091270;28;20175;-72
2023/01/19 08:23:56;;;;;;;33.70;19.80;;;2.50;99.90;;;;;;5099666;28;21735;-72
2023/01/19 08:26:26;;;;;;;36.63;20.50;;;2.60;99.90;;;;;;5088538;28;20606;-72
2023/01/19 08:28:53;;;;;;;40.93;20.17;;;2.50;99.90;;;;;;5094638;28;20542;-73
2023/01/19 08:31:39;;;;;;;42.73;19.17;;;2.50;99.90;;;;;;5099297;28;20183;-73
2023/01/19 08:34:05;;;;;;;38.60;21.20;;;2.60;99.90;;;;;;5084006;28;20183;-72
2023/01/19 08:36:31;;;;;;;39.57;20.07;;;2.50;99.90;;;;;;5093105;28;20194;-72
2023/01/19 08:38:56;;;;;;;43.10;20.80;;;2.50;99.90;;;;;;5079629;28;20183;-71
2023/01/19 08:41:22;;;;;;;35.20;20.30;;;2.60;99.90;;;;;;5087080;28;20211;-72
2023/01/19 08:43:48;;;;;;;34.63;18.60;;;2.60;99.90;;;;;;5086444;28;20212;-72
2023/01/19 08:46:16;;;;;;;37.67;18.60;;;2.50;99.90;;;;;;5090655;28;20218;-73
2023/01/19 08:48:43;;;;;;;41.23;21.40;;;2.60;99.90;;;;;;5102374;28;20168;-72
2023/01/19 08:51:10;;;;;;;40.53;19.67;;;2.50;99.90;;;;;;5104516;28;20250;-72
2023/01/19 08:53:35;;;;;;;40.53;20.13;;;2.60;99.90;;;;;;5094926;28;20198;-73
2023/01/19 08:56:02;;;;;;;39.13;19.67;;;2.70;99.90;;;;;;5090562;28;20214;-73
2023/01/19 08:58:27;;;;;;;34.47;19.70;;;2.70;99.90;;;;;;5100639;28;20170;-73
2023/01/19 09:00:53;;;;;;;39.40;19.47;;;2.70;99.90;;;;;;5095436;28;20180;-72
2023/01/19 09:03:22;;;;;;;38.67;20.47;;;2.80;99.90;;;;;;5106064;28;20206;-73
2023/01/19 09:05:49;;;;;;;37.67;19.20;;;2.80;99.90;;;;;;5087603;28;20191;-73
2023/01/19 09:08:15;;;;;;;39.37;18.93;;;2.70;99.90;;;;;;5072043;28;20266;-73
2023/01/19 09:10:47;;;;;;;38.13;19.80;;;2.70;99.90;;;;;;5089838;28;20159;-74
2023/01/19 09:13:13;;;;;;;42.17;19.77;;;2.80;99.90;;;;;;5086931;28;20180;-74
2023/01/19 09:15:43;;;;;;;39.83;19.87;;;2.80;99.90;;;;;;5092501;28;20182;-74
2023/01/19 09:18:12;;;;;;;39.07;18.80;;;2.90;99.90;;;;;;5097680;28;20205;-72
2023/01/19 09:20:42;;;;;;;37.13;19.10;;;2.90;99.90;;;;;;5103297;28;20341;-73
2023/01/19 09:23:13;;;;;;;33.57;18.87;;;2.90;99.90;;;;;;5091487;28;20563;-72
2023/01/19 09:25:40;;;;;;;40.33;20.00;;;3.00;99.90;;;;;;5104339;28;20175;-74
2023/01/19 09:28:08;;;;;;;40.00;19.10;;;3.10;99.90;;;;;;5093265;28;20615;-73
2023/01/19 09:30:38;;;;;;;40.97;19.30;;;3.00;99.90;;;;;;5074987;28;20183;-73
2023/01/19 09:33:10;;;;;;;34.27;18.47;;;3.10;99.90;;;;;;5066045;28;20644;-71
2023/01/19 09:35:37;;;;;;;37.43;18.70;;;3.20;99.90;;;;;;5065879;28;20183;-72
2023/01/19 09:38:03;;;;;;;38.83;19.00;;;3.10;99.90;;;;;;5069761;28;20172;-74
2023/01/19 09:40:29;;;;;;;43.97;18.37;;;3.10;99.90;;;;;;5070155;28;20267;-72
2023/01/19 09:42:56;;;;;;;35.90;18.13;;;3.30;99.90;;;;;;5071975;28;20269;-74
2023/01/19 09:45:37;;;;;;;35.73;16.93;;;3.10;99.90;;;;;;5065416;28;20226;-72
2023/01/19 09:48:29;;;;;;;33.50;17.87;;;3.00;99.90;;;;;;5070891;28;20628;-73
2023/01/19 09:51:00;;;;;;;38.53;17.07;;;3.10;99.90;;;;;;5069198;28;20559;-72
2023/01/19 09:53:54;;;;;;;40.73;17.67;;;3.20;99.90;;;;;;5069124;28;20184;-72
2023/01/19 09:56:20;;;;;;;31.70;16.73;;;3.10;99.90;;;;;;5068672;28;20195;-71
2023/01/19 09:58:48;;;;;;;35.20;16.77;;;3.20;99.90;;;;;;5071328;28;20181;-71
2023/01/19 10:01:38;;;;;;;34.87;16.60;;;3.30;99.90;;;;;;5070920;28;20180;-71
2023/01/19 10:04:37;;;;;;;35.53;17.27;;;3.40;99.90;;;;;;5073555;28;20227;-72
2023/01/19 10:07:24;;;;;;;35.77;17.23;;;3.50;99.90;;;;;;5071161;28;20251;-71
2023/01/19 10:10:12;;;;;;;35.17;17.00;;;3.60;99.90;;;;;;5080624;28;20195;-71
2023/01/19 10:13:01;;;;;;;37.70;18.70;;;3.60;99.90;;;;;;5072586;28;20187;-72
2023/01/19 10:15:52;;;;;;;37.13;17.13;;;3.60;99.90;;;;;;5070343;28;20212;-73
2023/01/19 10:18:29;;;;;;;40.93;17.17;;;3.60;99.90;;;;;;5070396;28;20187;-72
2023/01/19 10:21:11;;;;;;;33.23;15.73;;;3.40;99.90;;;;;;5067942;28;20201;-70
2023/01/19 10:24:18;;;;;;;36.27;16.97;;;3.20;99.90;;;;;;5071057;28;20212;-77
2023/01/19 10:26:51;;;;;;;35.37;16.00;;;3.20;99.90;;;;;;5072002;28;20172;-70
2023/01/19 10:29:35;;;;;;;33.17;16.63;;;3.30;99.90;;;;;;5069490;28;20276;-71
2023/01/19 10:32:32;;;;;;;35.17;18.27;;;3.10;99.90;;;;;;5067167;28;20176;-71
2023/01/19 10:34:58;;;;;;;37.67;17.67;;;3.20;99.90;;;;;;4992390;28;20244;-72
2023/01/19 10:37:31;;;;;;;30.90;16.57;;;3.20;99.90;;;;;;4973926;28;20187;-72
2023/01/19 10:40:09;;;;;;;41.13;16.03;;;3.30;99.90;;;;;;4997887;28;20723;-73
2023/01/19 10:42:37;;;;;;;35.30;17.80;;;3.30;99.90;;;;;;4995158;28;20344;-72
2023/01/19 10:45:03;;;;;;;37.23;16.40;;;3.30;99.90;;;;;;4995226;28;20642;-74
2023/01/19 10:47:38;;;;;;;32.30;16.13;;;3.40;99.90;;;;;;4993204;28;20308;-74
2023/01/19 10:50:42;;;;;;;36.80;17.13;;;3.50;99.90;;;;;;4992405;28;20190;-73
2023/01/19 10:53:21;;;;;;;33.70;15.33;;;3.50;99.90;;;;;;4944524;28;20208;-74
2023/01/19 10:56:08;;;;;;;35.30;16.07;;;3.40;99.90;;;;;;4945131;28;20285;-73
2023/01/19 10:58:34;;;;;;;34.90;17.10;;;3.50;99.90;;;;;;4945154;28;20272;-73
2023/01/19 11:01:13;;;;;;;32.00;16.90;;;3.30;99.90;;;;;;4946109;28;20247;-75
2023/01/19 11:03:39;;;;;;;31.17;15.93;;;3.30;99.90;;;;;;4946371;28;20233;-72
2023/01/19 11:06:14;;;;;;;34.23;17.50;;;3.30;99.90;;;;;;4946360;28;20644;-74
2023/01/19 11:08:41;;;;;;;35.80;21.00;;;3.40;99.90;;;;;;4931005;29;20967;-75
2023/01/19 11:11:07;;;;;;;33.57;18.53;;;3.40;99.90;;;;;;4975283;28;21842;-74
2023/01/19 11:13:34;;;;;;;35.93;18.50;;;3.40;99.90;;;;;;5018245;28;20187;-75
2023/01/19 11:16:15;;;;;;;37.07;17.97;;;3.30;99.90;;;;;;5004429;28;20323;-70
2023/01/19 11:18:42;;;;;;;30.50;16.27;;;3.10;99.90;;;;;;5007755;28;20657;-71
2023/01/19 11:21:13;;;;;;;36.13;16.97;;;3.10;99.90;;;;;;5024274;28;20256;-74
2023/01/19 11:23:54;;;;;;;31.77;17.40;;;3.20;99.90;;;;;;5021948;28;20233;-73
2023/01/19 11:26:27;;;;;;;37.93;17.53;;;3.20;99.90;;;;;;5021392;28;20262;-73
2023/01/19 11:28:55;;;;;;;37.37;18.10;;;3.30;99.90;;;;;;5056618;28;20188;-73
2023/01/19 11:31:26;;;;;;;36.07;18.13;;;3.30;99.90;;;;;;5087219;28;20171;-73
2023/01/19 11:34:01;;;;;;;33.33;17.17;;;3.30;99.90;;;;;;5082179;28;20204;-74
2023/01/19 11:37:00;;;;;;;38.40;18.40;;;3.30;99.90;;;;;;5080580;28;20230;-74
2023/01/19 11:39:31;;;;;;;37.47;18.40;;;3.30;99.90;;;;;;5019045;28;20264;-72
2023/01/19 11:42:01;;;;;;;33.30;18.47;;;3.40;99.90;;;;;;5038500;28;20410;-74
2023/01/19 11:44:31;;;;;;;33.30;18.17;;;3.30;99.90;;;;;;5027586;28;20194;-74
2023/01/19 11:47:04;;;;;;;38.53;18.90;;;3.30;99.90;;;;;;5023049;28;20245;-73
2023/01/19 11:49:32;;;;;;;41.60;20.40;;;3.40;99.90;;;;;;5029729;28;20186;-73
2023/01/19 11:52:23;;;;;;;33.00;17.30;;;3.50;99.90;;;;;;5031553;28;20186;-77
2023/01/19 11:55:09;;;;;;;34.20;18.00;;;3.40;99.90;;;;;;5026802;28;20689;-73
2023/01/19 11:57:36;;;;;;;34.80;16.80;;;3.40;99.90;;;;;;5023224;28;20233;-72
2023/01/19 12:00:23;;;;;;;35.93;19.10;;;3.40;99.90;;;;;;5036189;28;20177;-71
2023/01/19 12:02:54;;;;;;;33.17;16.90;;;3.50;99.90;;;;;;5004914;28;20282;-75
2023/01/19 12:05:21;;;;;;;27.60;16.60;;;3.40;99.90;;;;;;5032173;28;20980;-73
2023/01/19 12:07:49;;;;;;;32.20;17.30;;;3.30;99.90;;;;;;5048064;28;20178;-79
2023/01/19 12:10:40;;;;;;;32.57;17.17;;;3.40;99.90;;;;;;5044000;28;20217;-74
2023/01/19 12:13:12;;;;;;;31.33;18.53;;;3.60;99.90;;;;;;5032716;28;20765;-74
2023/01/19 12:15:43;;;;;;;32.07;18.13;;;3.60;99.90;;;;;;5038340;28;20224;-72
2023/01/19 12:18:18;;;;;;;32.07;17.00;;;3.80;99.90;;;;;;5095051;28;20643;-73
2023/01/19 12:20:49;;;;;;;29.80;17.60;;;3.90;99.90;;;;;;5101883;28;20234;-71
2023/01/19 12:23:32;;;;;;;27.47;17.10;;;4.00;99.90;;;;;;5080368;28;20241;-73
2023/01/19 12:26:17;;;;;;;27.90;15.93;;;4.10;99.90;;;;;;5089045;28;20175;-75
2023/01/19 12:28:48;;;;;;;27.00;15.63;;;4.20;99.90;;;;;;5090361;28;20160;-73
2023/01/19 12:31:20;;;;;;;31.53;15.70;;;4.30;99.90;;;;;;5104674;28;20634;-74
2023/01/19 12:33:46;;;;;;;36.00;19.47;;;4.30;99.90;;;;;;5092027;28;20175;-72
2023/01/19 12:36:34;;;;;;;24.20;15.53;;;4.30;99.90;;;;;;5090178;28;20270;-72
2023/01/19 12:39:17;;;;;;;29.37;16.27;;;4.30;99.90;;;;;;5089605;28;20180;-72
2023/01/19 12:41:44;;;;;;;27.53;16.10;;;4.20;99.90;;;;;;5091561;28;20204;-69
2023/01/19 12:44:17;;;;;;;30.73;18.70;;;4.20;99.90;;;;;;5095279;28;20247;-77
2023/01/19 12:47:02;;;;;;;32.70;19.63;;;4.30;99.90;;;;;;5092810;28;20219;-71
2023/01/19 12:49:32;;;;;;;28.70;16.83;;;4.30;99.90;;;;;;5089871;28;20229;-70
2023/01/19 12:52:32;;;;;;;30.50;20.00;;;4.50;99.90;;;;;;5095874;28;20649;-69
2023/01/19 12:55:01;;;;;;;27.87;16.10;;;4.50;99.90;;;;;;5091893;28;20233;-72
2023/01/19 12:57:30;;;;;;;30.90;15.53;;;4.30;99.90;;;;;;5098018;28;20217;-70
2023/01/19 13:00:04;;;;;;;27.20;16.30;;;4.30;99.90;;;;;;5098366;28;20298;-70